Time;durP1;ratioP1;P1;durP2;ratioP2;P2;SDS_P1;SDS_P2;PMS_P1;PMS_P2;Temp;Humidity;BMP_temperature;BMP_pressure;BME280_temperature;BME280_humidity;BME280_pressure;Samples;Min_cycle;Max_cycle;Signal;HPM_P1;HPM_P2
2023/04/14 00:00:39;;;;;;;0.22;0.22;;;;;;;18.88;44.42;100509.44;5098464;28;20051;-45
2023/04/14 00:03:05;;;;;;;0.20;0.20;;;;;;;18.87;44.54;100502.25;5104201;28;20197;-43
2023/04/14 00:05:32;;;;;;;0.25;0.25;;;;;;;18.87;44.49;100503.09;5096282;28;20044;-44
2023/04/14 00:07:57;;;;;;;0.30;0.30;;;;;;;18.86;44.38;100498.66;5061398;28;20473;-43
2023/04/14 00:10:23;;;;;;;0.30;0.30;;;;;;;18.86;44.39;100498.66;5096630;28;20051;-43
2023/04/14 00:12:49;;;;;;;0.20;0.20;;;;;;;18.87;44.53;100496.72;5078115;28;20470;-43
2023/04/14 00:15:15;;;;;;;0.20;0.20;;;;;;;18.88;44.63;100498.38;5096177;28;20061;-44
2023/04/14 00:17:40;;;;;;;0.20;0.20;;;;;;;18.88;44.57;100506.66;5078142;28;20073;-43
2023/04/14 00:20:07;;;;;;;0.30;0.30;;;;;;;18.88;44.38;100504.72;5078196;28;20388;-45
2023/04/14 00:22:33;;;;;;;0.30;0.30;;;;;;;18.87;44.49;100508.59;5077838;28;20509;-43
2023/04/14 00:25:00;;;;;;;0.30;0.30;;;;;;;18.88;44.56;100496.44;5062753;28;20039;-45
2023/04/14 00:27:26;;;;;;;0.30;0.30;;;;;;;18.88;44.35;100506.66;5115104;27;20519;-47
2023/04/14 00:29:52;;;;;;;0.20;0.20;;;;;;;18.87;44.48;100505.84;5114020;28;20081;-44
2023/04/14 00:32:18;;;;;;;0.30;0.30;;;;;;;18.87;44.58;100508.59;5100548;27;20048;-44
2023/04/14 00:34:43;;;;;;;0.30;0.30;;;;;;;18.87;44.28;100511.38;5110192;28;20045;-44
2023/04/14 00:37:09;;;;;;;0.20;0.20;;;;;;;18.87;44.53;100514.13;5097738;28;20051;-44
2023/04/14 00:39:35;;;;;;;0.30;0.30;;;;;;;18.88;44.58;100514.94;5116695;28;20051;-44
2023/04/14 00:42:01;;;;;;;0.20;0.20;;;;;;;18.87;44.18;100514.13;5116331;28;20458;-44
2023/04/14 00:44:26;;;;;;;0.30;0.30;;;;;;;18.87;44.20;100513.28;5098176;28;20504;-45
2023/04/14 00:46:53;;;;;;;0.30;0.30;;;;;;;18.88;44.53;100525.97;5115453;27;20059;-45
2023/04/14 00:49:19;;;;;;;0.28;0.28;;;;;;;18.87;44.23;100514.13;5116390;28;20484;-43
2023/04/14 00:51:45;;;;;;;0.20;0.20;;;;;;;18.88;44.36;100518.53;5114957;28;20047;-45
2023/04/14 00:54:12;;;;;;;0.25;0.25;;;;;;;18.88;44.55;100512.19;5115815;28;20052;-46
2023/04/14 00:56:37;;;;;;;0.30;0.30;;;;;;;18.88;44.33;100523.22;5115790;28;20085;-43
2023/04/14 00:59:05;;;;;;;0.30;0.30;;;;;;;18.87;44.25;100524.31;5116221;28;20051;-42
2023/04/14 01:01:35;;;;;;;0.20;0.20;;;;;;;18.88;44.16;100529.56;5115972;28;20077;-43
2023/04/14 01:04:02;;;;;;;0.20;0.20;;;;;;;18.88;44.35;100528.75;5097691;28;20043;-44
2023/04/14 01:06:28;;;;;;;0.20;0.20;;;;;;;18.88;44.54;100537.84;5115602;28;20039;-44
2023/04/14 01:08:54;;;;;;;0.20;0.20;;;;;;;18.88;44.47;100534.25;5115441;28;20300;-43
2023/04/14 01:11:49;;;;;;;0.20;0.20;;;;;;;18.87;44.41;100533.44;5097316;28;20046;-44
2023/04/14 01:14:25;;;;;;;0.20;0.20;;;;;;;18.88;44.45;100540.59;5101272;28;20035;-43
2023/04/14 01:16:54;;;;;;;0.20;0.20;;;;;;;18.89;44.25;100544.19;5097177;28;20213;-43
2023/04/14 01:19:43;;;;;;;0.20;0.20;;;;;;;18.88;44.38;100543.34;5115618;27;20090;-42
2023/04/14 01:22:10;;;;;;;0.20;0.20;;;;;;;18.87;44.17;100538.97;5114881;28;20308;-44
2023/04/14 01:24:55;;;;;;;0.20;0.20;;;;;;;18.88;44.23;100548.06;5102761;27;20055;-45
2023/04/14 01:27:35;;;;;;;0.28;0.28;;;;;;;18.88;44.49;100545.28;5102112;28;20055;-44
2023/04/14 01:30:31;;;;;;;0.30;0.30;;;;;;;18.88;44.46;100546.13;5097120;28;20047;-46
2023/04/14 01:33:01;;;;;;;0.20;0.20;;;;;;;18.87;44.61;100547.25;5081442;28;20094;-44
2023/04/14 01:35:36;;;;;;;0.30;0.30;;;;;;;18.88;44.44;100548.06;5115479;28;20486;-47
2023/04/14 01:38:07;;;;;;;0.30;0.30;;;;;;;18.87;44.50;100541.72;5115449;27;20075;-45
2023/04/14 01:40:35;;;;;;;0.30;0.30;;;;;;;18.87;44.19;100540.88;5097422;28;20456;-43
2023/04/14 01:43:04;;;;;;;0.20;0.20;;;;;;;18.88;44.50;100546.13;5097591;28;20066;-44
2023/04/14 01:45:35;;;;;;;0.20;0.20;;;;;;;18.88;44.21;100545.28;5081626;28;20035;-43
2023/04/14 01:48:02;;;;;;;0.20;0.20;;;;;;;18.87;44.44;100547.25;5115002;28;20051;-44
2023/04/14 01:50:29;;;;;;;0.20;0.20;;;;;;;18.88;44.51;100559.09;5115240;28;20047;-43
2023/04/14 01:52:55;;;;;;;0.20;0.20;;;;;;;18.88;44.40;100553.56;5106993;27;20471;-44
2023/04/14 01:55:22;;;;;;;0.30;0.30;;;;;;;18.87;44.52;100561.03;5097581;27;20480;-42
2023/04/14 01:57:50;;;;;;;0.20;0.20;;;;;;;18.88;44.21;100557.16;5094814;28;20051;-43
2023/04/14 02:00:16;;;;;;;0.30;0.30;;;;;;;18.88;44.37;100550.81;5076764;28;20457;-46
2023/04/14 02:02:44;;;;;;;0.30;0.30;;;;;;;18.87;44.46;100555.50;5095216;28;20047;-47
2023/04/14 02:05:11;;;;;;;0.20;0.20;;;;;;;18.88;44.43;100551.63;5112481;28;20047;-45
2023/04/14 02:07:37;;;;;;;0.20;0.20;;;;;;;18.87;44.25;100558.28;5114882;28;20537;-47
2023/04/14 02:10:05;;;;;;;0.20;0.20;;;;;;;18.88;44.29;100562.69;5096686;28;20550;-45
2023/04/14 02:12:31;;;;;;;0.20;0.20;;;;;;;18.88;44.17;100561.84;5096570;28;20047;-44
2023/04/14 02:14:58;;;;;;;0.30;0.30;;;;;;;18.88;44.53;100562.69;5114838;28;20044;-44
2023/04/14 02:17:24;;;;;;;0.20;0.20;;;;;;;18.89;44.50;100566.25;5109895;27;20097;-44
2023/04/14 02:19:52;;;;;;;0.20;0.20;;;;;;;18.88;44.20;100561.84;5094473;28;20153;-45
2023/04/14 02:22:18;;;;;;;0.30;0.30;;;;;;;18.88;44.09;100561.84;5076094;28;20533;-43
2023/04/14 02:24:46;;;;;;;0.20;0.20;;;;;;;18.89;44.28;100563.50;5108706;28;20043;-44
2023/04/14 02:27:24;;;;;;;0.20;0.20;;;;;;;18.87;44.37;100563.78;5115216;28;20074;-47
2023/04/14 02:29:52;;;;;;;0.20;0.20;;;;;;;18.89;44.24;100566.25;5117702;27;20039;-42
2023/04/14 02:32:24;;;;;;;0.30;0.30;;;;;;;18.88;44.51;100579.22;5122932;27;20405;-47
2023/04/14 02:34:53;;;;;;;0.20;0.20;;;;;;;18.89;44.19;100574.53;5115438;28;20071;-44
2023/04/14 02:37:22;;;;;;;0.30;0.30;;;;;;;18.89;44.34;100574.53;5079595;28;20054;-44
2023/04/14 02:40:00;;;;;;;0.25;0.25;;;;;;;18.88;44.53;100575.66;5096396;28;20490;-43
2023/04/14 02:42:27;;;;;;;0.20;0.20;;;;;;;18.89;44.41;100582.81;5114789;28;20515;-43
2023/04/14 02:45:01;;;;;;;0.20;0.20;;;;;;;18.88;44.33;100579.22;5096924;28;20051;-43
2023/04/14 02:47:31;;;;;;;0.30;0.30;;;;;;;18.88;44.33;100587.50;5096594;28;20698;-47
2023/04/14 02:49:58;;;;;;;0.30;0.30;;;;;;;18.89;44.38;100580.88;5114554;27;20304;-46
2023/04/14 02:52:24;;;;;;;0.20;0.20;;;;;;;18.88;44.22;100584.75;5118008;27;20464;-43
2023/04/14 02:54:51;;;;;;;0.20;0.20;;;;;;;18.89;44.52;100586.38;5103546;27;20044;-44
2023/04/14 02:57:17;;;;;;;0.30;0.30;;;;;;;18.89;44.33;100593.84;5097912;28;20043;-44
2023/04/14 02:59:45;;;;;;;0.30;0.30;;;;;;;18.89;44.38;100588.31;5097626;28;20101;-45
2023/04/14 03:02:11;;;;;;;0.20;0.20;;;;;;;18.89;44.19;100591.09;5079411;28;20051;-43
2023/04/14 03:04:37;;;;;;;0.28;0.28;;;;;;;18.87;44.44;100588.63;5097527;27;20130;-45
2023/04/14 03:07:04;;;;;;;0.20;0.20;;;;;;;18.89;44.56;100593.84;5079561;28;20065;-42
2023/04/14 03:09:30;;;;;;;0.20;0.20;;;;;;;18.87;44.36;100588.63;5079451;28;20082;-44
2023/04/14 03:11:57;;;;;;;0.30;0.30;;;;;;;18.89;44.50;100588.31;5097697;28;20067;-42
2023/04/14 03:14:23;;;;;;;0.30;0.30;;;;;;;18.88;44.36;100584.75;5078938;28;20072;-45
2023/04/14 03:16:50;;;;;;;0.30;0.30;;;;;;;18.89;44.18;100593.84;5078943;28;20048;-45
2023/04/14 03:19:22;;;;;;;0.20;0.20;;;;;;;18.87;44.23;100585.88;5097523;28;20053;-43
2023/04/14 03:21:49;;;;;;;0.28;0.28;;;;;;;18.88;44.21;100590.25;5097300;28;20075;-45
2023/04/14 03:24:23;;;;;;;0.30;0.30;;;;;;;18.89;44.35;100582.81;5079139;28;20047;-45
2023/04/14 03:26:51;;;;;;;0.20;0.20;;;;;;;18.88;44.55;100590.25;5079941;28;20415;-44
2023/04/14 03:29:19;;;;;;;0.20;0.20;;;;;;;18.88;44.22;100590.25;5079181;28;20043;-44
2023/04/14 03:31:45;;;;;;;0.30;0.30;;;;;;;18.89;44.54;100577.28;5101786;28;20039;-43
2023/04/14 03:34:14;;;;;;;0.20;0.20;;;;;;;18.88;44.55;100581.16;5116774;27;20039;-46
2023/04/14 03:36:41;;;;;;;0.20;0.20;;;;;;;18.89;44.24;100577.28;5103456;27;20052;-43
2023/04/14 03:39:10;;;;;;;0.30;0.30;;;;;;;18.88;44.38;100579.22;5097285;28;20411;-44
2023/04/14 03:41:37;;;;;;;0.28;0.28;;;;;;;18.88;44.41;100579.22;5078695;28;20328;-45
2023/04/14 03:44:03;;;;;;;0.20;0.20;;;;;;;18.88;44.59;100582.00;5078879;28;20043;-43
2023/04/14 03:46:29;;;;;;;0.22;0.22;;;;;;;18.89;44.22;100585.56;5096864;28;20450;-43
2023/04/14 03:48:57;;;;;;;0.20;0.20;;;;;;;18.89;44.25;100580.06;5097433;28;20189;-43
2023/04/14 03:51:26;;;;;;;0.20;0.20;;;;;;;18.89;44.22;100574.53;5100876;28;20047;-43
2023/04/14 03:53:53;;;;;;;0.22;0.22;;;;;;;18.89;44.32;100575.34;5099138;28;20070;-45
2023/04/14 03:56:18;;;;;;;0.30;0.30;;;;;;;18.88;44.30;100576.47;5098914;28;20048;-44
2023/04/14 03:58:46;;;;;;;0.30;0.30;;;;;;;18.89;44.53;100582.81;5117683;28;20062;-43
2023/04/14 04:01:13;;;;;;;0.20;0.20;;;;;;;18.89;44.41;100580.06;5117328;27;20183;-44
2023/04/14 04:03:39;;;;;;;0.30;0.30;;;;;;;18.89;44.41;100586.38;5088550;28;20507;-43
2023/04/14 04:06:06;;;;;;;0.30;0.30;;;;;;;18.88;44.13;100582.00;5096718;28;20525;-44
2023/04/14 04:08:32;;;;;;;0.30;0.30;;;;;;;18.89;44.50;100588.31;5078442;28;20412;-46
2023/04/14 04:10:59;;;;;;;0.30;0.30;;;;;;;18.89;44.30;100580.06;5096912;28;20507;-45
2023/04/14 04:13:25;;;;;;;0.30;0.30;;;;;;;18.89;44.24;100583.63;5096634;28;20039;-47
2023/04/14 04:15:51;;;;;;;0.20;0.20;;;;;;;18.89;44.17;100585.56;5096438;28;20044;-44
2023/04/14 04:18:17;;;;;;;0.30;0.30;;;;;;;18.89;44.25;100589.16;5096686;28;20309;-43
2023/04/14 04:20:43;;;;;;;0.30;0.30;;;;;;;18.89;44.07;100588.31;5078420;28;20097;-45
2023/04/14 04:23:09;;;;;;;0.20;0.20;;;;;;;18.88;44.39;100587.50;5078160;28;20505;-44
2023/04/14 04:25:36;;;;;;;0.25;0.25;;;;;;;18.88;44.47;100593.03;5096537;28;20077;-44
2023/04/14 04:28:02;;;;;;;0.28;0.28;;;;;;;18.89;44.36;100599.38;5078377;28;20048;-43
2023/04/14 04:30:29;;;;;;;0.20;0.20;;;;;;;18.89;44.32;100602.94;5078258;28;20071;-43
2023/04/14 04:32:55;;;;;;;0.20;0.20;;;;;;;18.88;44.39;100600.47;5106171;28;20043;-46
2023/04/14 04:35:22;;;;;;;0.30;0.30;;;;;;;18.89;44.54;100607.63;5104170;28;20424;-42
2023/04/14 04:37:48;;;;;;;0.20;0.20;;;;;;;18.89;44.30;100610.41;5098399;28;20043;-45
2023/04/14 04:40:14;;;;;;;0.22;0.22;;;;;;;18.89;44.36;100615.91;5117122;28;20089;-42
2023/04/14 04:42:41;;;;;;;0.20;0.20;;;;;;;18.89;44.25;100618.69;5116549;28;20071;-44
2023/04/14 04:45:07;;;;;;;0.30;0.30;;;;;;;18.88;44.24;100609.56;5097728;28;20533;-43
2023/04/14 04:47:33;;;;;;;0.20;0.20;;;;;;;18.89;44.29;100607.63;5098188;28;20159;-43
2023/04/14 04:49:58;;;;;;;0.30;0.30;;;;;;;18.89;44.30;100613.16;5116557;28;20538;-43
2023/04/14 04:52:24;;;;;;;0.30;0.30;;;;;;;18.89;44.32;100622.25;5115645;28;20415;-42
2023/04/14 04:54:51;;;;;;;0.30;0.30;;;;;;;18.89;44.27;100613.16;5116130;28;20543;-42
2023/04/14 04:57:17;;;;;;;0.30;0.30;;;;;;;18.90;44.19;100609.28;5097541;28;20074;-44
2023/04/14 04:59:43;;;;;;;0.20;0.20;;;;;;;18.89;44.19;100610.41;5116219;28;20054;-44
2023/04/14 05:02:09;;;;;;;0.30;0.30;;;;;;;18.89;44.42;100622.25;5116189;28;20039;-44
2023/04/14 05:04:35;;;;;;;0.20;0.20;;;;;;;18.88;44.34;100612.34;5103174;27;20055;-42
2023/04/14 05:07:02;;;;;;;0.25;0.25;;;;;;;18.88;44.49;100608.75;5095707;28;20047;-44
2023/04/14 05:09:27;;;;;;;0.20;0.20;;;;;;;18.89;44.21;100611.22;5077032;28;20072;-43
2023/04/14 05:11:53;;;;;;;0.20;0.20;;;;;;;18.89;44.17;100604.88;5095572;28;20043;-44
2023/04/14 05:14:19;;;;;;;0.20;0.20;;;;;;;18.89;44.50;100615.91;5094251;28;20517;-42
2023/04/14 05:16:46;;;;;;;0.25;0.25;;;;;;;18.89;44.34;100615.91;5094681;28;20063;-45
2023/04/14 05:19:12;;;;;;;0.20;0.20;;;;;;;18.89;44.20;100616.75;5095072;28;20113;-42
2023/04/14 05:21:37;;;;;;;0.20;0.20;;;;;;;18.89;44.39;100615.91;5095460;28;20090;-42
2023/04/14 05:24:04;;;;;;;0.20;0.20;;;;;;;18.89;44.37;100613.16;5095288;28;20051;-43
2023/04/14 05:26:30;;;;;;;0.30;0.30;;;;;;;18.88;44.26;100614.28;5094805;28;20124;-42
2023/04/14 05:29:15;;;;;;;0.20;0.20;;;;;;;18.90;44.21;100617.56;5079725;28;20043;-44
2023/04/14 05:31:41;;;;;;;0.20;0.20;;;;;;;18.89;44.32;100622.25;5095512;28;20095;-42
2023/04/14 05:34:07;;;;;;;0.20;0.20;;;;;;;18.89;44.13;100622.25;5099640;28;20047;-44
2023/04/14 05:36:32;;;;;;;0.20;0.20;;;;;;;18.89;44.21;100625.03;5115343;27;20143;-43
2023/04/14 05:38:58;;;;;;;0.20;0.20;;;;;;;18.89;44.42;100622.25;5114771;28;20058;-44
2023/04/14 05:41:24;;;;;;;0.20;0.20;;;;;;;18.89;44.38;100621.44;5115470;28;20433;-45
2023/04/14 05:43:50;;;;;;;0.20;0.20;;;;;;;18.88;44.36;100626.13;5115843;28;20036;-44
2023/04/14 05:46:15;;;;;;;0.20;0.20;;;;;;;18.90;44.33;100634.13;5114896;28;20043;-43
2023/04/14 05:48:41;;;;;;;0.20;0.20;;;;;;;18.89;44.01;100630.53;5115164;28;20047;-43
2023/04/14 05:51:07;;;;;;;0.20;0.20;;;;;;;18.90;44.17;100634.13;5115294;28;20043;-43
2023/04/14 05:53:32;;;;;;;0.20;0.20;;;;;;;18.90;44.46;100636.88;5113303;28;20040;-42
2023/04/14 05:55:58;;;;;;;0.20;0.20;;;;;;;18.89;44.10;100632.47;5106460;27;20480;-43
2023/04/14 05:58:25;;;;;;;0.20;0.20;;;;;;;18.89;44.42;100638.81;5094650;28;20044;-44
2023/04/14 06:00:51;;;;;;;0.20;0.20;;;;;;;18.89;44.35;100635.22;5094570;28;20048;-43
2023/04/14 06:03:16;;;;;;;0.20;0.20;;;;;;;18.89;44.39;100630.53;5101954;27;20143;-43
2023/04/14 06:05:42;;;;;;;0.30;0.30;;;;;;;18.90;44.17;100636.88;5115243;28;20049;-46
2023/04/14 06:08:08;;;;;;;0.30;0.30;;;;;;;18.89;44.34;100638.00;5114935;28;20491;-41
2023/04/14 06:10:34;;;;;;;0.20;0.20;;;;;;;18.88;44.29;100634.41;5115011;28;20055;-42
2023/04/14 06:13:00;;;;;;;0.20;0.20;;;;;;;18.89;44.11;100640.75;5114861;28;20076;-42
2023/04/14 06:15:28;;;;;;;0.20;0.20;;;;;;;18.90;44.34;100639.63;5115088;28;20115;-43
2023/04/14 06:17:54;;;;;;;0.20;0.20;;;;;;;18.88;44.27;100628.88;5115129;28;20082;-44
2023/04/14 06:20:20;;;;;;;0.20;0.20;;;;;;;18.88;44.11;100626.13;5096200;28;20238;-44
2023/04/14 06:22:46;;;;;;;0.20;0.20;;;;;;;18.89;44.19;100619.50;5114818;28;20043;-43
2023/04/14 06:25:12;;;;;;;0.30;0.30;;;;;;;18.89;44.39;100626.97;5116647;27;20047;-42
2023/04/14 06:27:38;;;;;;;0.20;0.20;;;;;;;18.90;44.25;100617.56;5099796;28;20539;-43
2023/04/14 06:30:05;;;;;;;0.20;0.20;;;;;;;18.89;44.13;100624.19;5118582;28;20456;-43
2023/04/14 06:32:31;;;;;;;0.22;0.22;;;;;;;18.89;44.27;100613.16;5118479;28;20588;-42
2023/04/14 06:34:56;;;;;;;0.30;0.30;;;;;;;18.89;44.12;100616.75;5118413;28;20140;-43
2023/04/14 06:37:22;;;;;;;0.20;0.20;;;;;;;18.89;44.33;100621.44;5117794;28;20070;-42
2023/04/14 06:39:48;;;;;;;0.20;0.20;;;;;;;18.88;44.59;100601.31;5117545;28;20398;-44
2023/04/14 06:42:14;;;;;;;0.20;0.20;;;;;;;18.88;44.25;100608.75;5117881;28;20055;-44
2023/04/14 06:44:40;;;;;;;0.20;0.20;;;;;;;18.90;44.12;100609.28;5118076;28;20510;-44
2023/04/14 06:47:06;;;;;;;0.20;0.20;;;;;;;18.88;44.11;100609.56;5082514;28;20075;-44
2023/04/14 06:49:31;;;;;;;0.20;0.20;;;;;;;18.88;44.50;100601.31;5099394;28;20043;-43
2023/04/14 06:51:57;;;;;;;0.20;0.20;;;;;;;18.90;44.50;100601.00;5117474;28;20542;-43
2023/04/14 06:54:23;;;;;;;0.20;0.20;;;;;;;18.90;44.19;100609.28;5117928;28;20066;-44
2023/04/14 06:56:48;;;;;;;0.20;0.20;;;;;;;18.89;44.12;100610.41;5117546;28;20039;-43
2023/04/14 06:59:14;;;;;;;0.20;0.20;;;;;;;18.89;44.26;100610.41;5117484;28;20564;-44
2023/04/14 07:01:40;;;;;;;0.20;0.20;;;;;;;18.89;44.29;100613.16;5115539;27;20051;-43
2023/04/14 07:04:07;;;;;;;0.20;0.20;;;;;;;18.90;44.26;100606.53;5097424;28;20071;-42
2023/04/14 07:06:33;;;;;;;0.20;0.20;;;;;;;18.89;44.10;100597.44;5097826;28;20408;-42
2023/04/14 07:08:59;;;;;;;0.30;0.30;;;;;;;18.89;44.15;100602.94;5096973;28;20052;-43
2023/04/14 07:11:25;;;;;;;0.20;0.20;;;;;;;18.88;44.08;100601.31;5097451;28;20126;-42
2023/04/14 07:13:50;;;;;;;0.30;0.30;;;;;;;18.88;44.12;100595.78;5096992;28;20055;-44
2023/04/14 07:16:16;;;;;;;0.20;0.20;;;;;;;18.89;44.33;100596.59;5097538;28;20047;-44
2023/04/14 07:18:42;;;;;;;0.20;0.20;;;;;;;18.89;44.27;100600.19;5097383;28;20051;-43
2023/04/14 07:21:07;;;;;;;0.20;0.20;;;;;;;18.90;44.09;100592.72;5097102;28;20452;-46
2023/04/14 07:23:33;;;;;;;0.20;0.20;;;;;;;18.89;44.30;100582.81;5097339;28;20044;-42
2023/04/14 07:25:59;;;;;;;0.20;0.20;;;;;;;18.88;44.17;100582.00;5097395;28;20356;-42
2023/04/14 07:28:26;;;;;;;0.20;0.20;;;;;;;18.88;44.09;100572.88;5079068;28;20497;-45
2023/04/14 07:30:52;;;;;;;0.20;0.20;;;;;;;18.90;44.18;100578.94;5097207;28;20442;-44
2023/04/14 07:33:20;;;;;;;0.20;0.20;;;;;;;18.89;44.20;100580.88;5078709;28;20051;-43
2023/04/14 07:35:47;;;;;;;0.20;0.20;;;;;;;18.90;44.27;100584.44;5079261;28;20052;-43
2023/04/14 07:38:27;;;;;;;0.20;0.20;;;;;;;18.89;44.12;100585.56;5108443;28;20408;-43
2023/04/14 07:40:53;;;;;;;0.30;0.30;;;;;;;18.89;44.09;100569.00;5116901;28;20074;-43
2023/04/14 07:43:19;;;;;;;0.25;0.25;;;;;;;18.88;44.22;100573.72;5115181;28;20047;-46
2023/04/14 07:45:45;;;;;;;0.30;0.30;;;;;;;18.89;44.31;100569.00;5096325;28;20084;-42
2023/04/14 07:48:10;;;;;;;0.30;0.30;;;;;;;18.89;44.14;100574.53;5097124;28;20517;-43
2023/04/14 07:50:36;;;;;;;0.30;0.30;;;;;;;18.89;44.47;100571.78;5096372;28;20263;-42
2023/04/14 07:53:02;;;;;;;0.20;0.20;;;;;;;18.89;44.12;100572.59;5096092;28;20526;-42
2023/04/14 07:55:28;;;;;;;0.30;0.30;;;;;;;18.88;44.25;100568.19;5096597;28;20506;-44
2023/04/14 07:57:53;;;;;;;0.30;0.30;;;;;;;18.89;44.16;100561.56;5110068;28;20564;-42
2023/04/14 08:00:20;;;;;;;0.30;0.30;;;;;;;18.89;44.08;100567.06;5116560;27;20057;-45
2023/04/14 08:02:46;;;;;;;0.30;0.30;;;;;;;18.89;44.02;100571.78;5128238;27;20046;-44
2023/04/14 08:05:12;;;;;;;0.30;0.30;;;;;;;18.88;44.17;100568.19;5103712;27;20096;-45
2023/04/14 08:07:37;;;;;;;0.30;0.30;;;;;;;18.89;43.83;100564.31;5116735;28;20344;-42
2023/04/14 08:10:03;;;;;;;0.30;0.30;;;;;;;18.89;44.32;100567.06;5116905;28;20051;-42
2023/04/14 08:12:29;;;;;;;0.30;0.30;;;;;;;18.89;44.22;100560.72;5116398;28;20039;-44
2023/04/14 08:14:56;;;;;;;0.30;0.30;;;;;;;18.89;44.06;100561.56;5116819;28;20043;-44
2023/04/14 08:17:22;;;;;;;0.20;0.20;;;;;;;18.89;44.12;100560.72;5116555;28;20043;-42
2023/04/14 08:19:48;;;;;;;0.30;0.30;;;;;;;18.90;44.18;100565.13;5098631;28;20111;-43
2023/04/14 08:22:14;;;;;;;0.30;0.30;;;;;;;18.90;44.01;100565.13;5098370;28;20039;-44
2023/04/14 08:24:40;;;;;;;0.20;0.20;;;;;;;18.90;44.24;100567.88;5116433;28;20050;-43
2023/04/14 08:27:05;;;;;;;0.30;0.30;;;;;;;18.89;44.18;100569.00;5116572;28;20043;-44
2023/04/14 08:29:31;;;;;;;0.30;0.30;;;;;;;18.90;44.50;100567.88;5117122;28;20053;-42
2023/04/14 08:31:57;;;;;;;0.30;0.30;;;;;;;18.89;44.16;100567.06;5116841;28;20043;-42
2023/04/14 08:34:23;;;;;;;0.20;0.20;;;;;;;18.90;44.49;100563.19;5116442;28;20587;-42
2023/04/14 08:36:54;;;;;;;0.20;0.20;;;;;;;18.89;44.14;100563.50;5117003;28;21316;-44
2023/04/14 08:39:20;;;;;;;0.30;0.30;;;;;;;18.89;44.44;100563.50;5116582;28;20051;-43
2023/04/14 08:41:47;;;;;;;0.30;0.30;;;;;;;18.90;44.35;100565.94;5116501;28;20043;-42
2023/04/14 08:44:13;;;;;;;0.20;0.20;;;;;;;18.90;44.17;100565.13;5116233;28;20069;-42
2023/04/14 08:46:41;;;;;;;0.30;0.30;;;;;;;18.89;44.13;100557.97;5116263;28;20055;-42
2023/04/14 08:49:11;;;;;;;0.20;0.20;;;;;;;18.90;44.08;100559.63;5097214;28;20079;-44
2023/04/14 08:51:41;;;;;;;0.20;0.20;;;;;;;18.89;44.09;100558.78;5098459;28;20043;-43
2023/04/14 08:54:09;;;;;;;0.20;0.20;;;;;;;18.89;44.29;100553.28;5097677;28;20099;-42
2023/04/14 08:56:37;;;;;;;0.20;0.20;;;;;;;18.90;44.06;100562.38;5097872;28;20821;-42
2023/04/14 08:59:06;;;;;;;;;;;;;;;18.89;44.30;100553.28;5098681;28;20099;-44
2023/04/14 09:01:33;;;;;;;0.30;0.30;;;;;;;18.89;44.07;100556.03;5095910;27;19946;-42
2023/04/14 09:04:03;;;;;;;0.30;0.30;;;;;;;18.89;44.12;100557.97;5085249;28;20047;-43
2023/04/14 09:06:30;;;;;;;0.20;0.20;;;;;;;18.89;44.27;100553.28;5098308;28;20047;-42
2023/04/14 09:08:58;;;;;;;0.30;0.30;;;;;;;18.89;44.33;100553.28;5098074;28;20567;-44
2023/04/14 09:11:24;;;;;;;;;;;;;;;18.89;44.47;100556.03;5116904;28;20047;-43
2023/04/14 09:13:52;;;;;;;0.20;0.20;;;;;;;18.89;44.42;100549.69;5116091;28;19919;-42
2023/04/14 09:16:18;;;;;;;0.20;0.20;;;;;;;18.89;44.19;100544.19;5115933;28;20074;-42
2023/04/14 09:18:44;;;;;;;0.30;0.30;;;;;;;18.89;44.42;100544.19;5097550;28;20062;-42
2023/04/14 09:21:12;;;;;;;0.20;0.20;;;;;;;18.89;44.22;100538.66;5098329;28;20483;-42
2023/04/14 09:23:58;;;;;;;0.28;0.28;;;;;;;18.89;44.33;100535.91;5100785;28;20051;-41
2023/04/14 09:26:26;;;;;;;0.30;0.30;;;;;;;18.89;44.17;100533.97;5115866;28;20305;-42
2023/04/14 09:28:51;;;;;;;0.20;0.20;;;;;;;18.89;44.11;100535.91;5115609;28;20123;-42
2023/04/14 09:31:18;;;;;;;0.20;0.20;;;;;;;18.89;44.47;100531.19;5115593;28;20046;-43
2023/04/14 09:33:47;;;;;;;0.20;0.20;;;;;;;18.90;44.32;100532.03;5115489;28;20098;-42
2023/04/14 09:36:17;;;;;;;0.30;0.30;;;;;;;18.88;44.51;100529.56;5115462;28;20461;-43
2023/04/14 09:38:43;;;;;;;0.20;0.20;;;;;;;18.89;44.24;100520.16;5097508;28;20074;-42
2023/04/14 09:41:15;;;;;;;0.20;0.20;;;;;;;18.90;44.29;100512.72;5115285;28;20229;-43
2023/04/14 09:43:41;;;;;;;0.25;0.25;;;;;;;18.89;44.46;100514.66;5108826;28;20054;-42
2023/04/14 09:46:08;;;;;;;0.20;0.20;;;;;;;18.89;44.37;100520.16;5115131;28;20047;-44
2023/04/14 09:48:36;;;;;;;0.20;0.20;;;;;;;18.90;44.39;100518.22;5115259;28;20138;-45
2023/04/14 09:51:05;;;;;;;0.20;0.20;;;;;;;18.89;44.15;100520.16;5096908;28;20500;-42
2023/04/14 09:53:33;;;;;;;0.30;0.30;;;;;;;18.90;44.29;100527.31;5085509;28;20053;-44
2023/04/14 09:56:02;;;;;;;0.20;0.20;;;;;;;18.90;44.43;100515.47;5096025;28;20054;-44
2023/04/14 09:58:29;;;;;;;0.30;0.30;;;;;;;18.90;44.25;100526.50;5115028;28;20051;-44
2023/04/14 10:00:58;;;;;;;0.30;0.30;;;;;;;18.91;39.93;100523.47;5096358;28;20137;-41
2023/04/14 10:03:33;;;;;;;0.30;0.30;;;;;;;18.94;42.37;100513.78;5113074;27;20506;-43
2023/04/14 10:06:00;;;;;;;0.22;0.22;;;;;;;18.93;43.20;100512.97;5094510;28;20043;-46
2023/04/14 10:08:34;;;;;;;0.30;0.30;;;;;;;18.93;43.48;100524.00;5094203;28;20067;-42
2023/04/14 10:11:21;;;;;;;0.30;0.30;;;;;;;18.91;43.74;100515.19;5076403;28;20480;-42
2023/04/14 10:13:49;;;;;;;0.30;0.30;;;;;;;18.91;43.65;100508.81;5076509;28;20044;-43
2023/04/14 10:16:15;;;;;;;0.20;0.20;;;;;;;18.91;43.67;100509.69;5076036;28;20092;-43
2023/04/14 10:18:42;;;;;;;0.30;0.30;;;;;;;18.93;43.89;100506.63;5075730;28;20453;-44
2023/04/14 10:21:08;;;;;;;0.30;0.30;;;;;;;18.94;43.70;100509.06;5075845;28;20864;-44
2023/04/14 10:23:37;;;;;;;0.30;0.30;;;;;;;18.94;43.97;100503.56;5094379;28;20408;-43
2023/04/14 10:26:02;;;;;;;;;;;;;;;18.94;43.68;100492.53;5094350;28;20074;-44
2023/04/14 10:28:29;;;;;;;0.30;0.30;;;;;;;18.93;44.03;100485.38;5094318;28;20308;-42
2023/04/14 10:30:57;;;;;;;0.20;0.20;;;;;;;18.94;43.99;100491.69;5094748;28;21024;-43
2023/04/14 10:33:23;;;;;;;0.30;0.30;;;;;;;18.95;44.15;100494.16;5094943;28;20055;-42
2023/04/14 10:35:53;;;;;;;0.30;0.30;;;;;;;18.95;44.04;100480.38;5094973;28;20139;-44
2023/04/14 10:38:19;;;;;;;0.30;0.30;;;;;;;18.96;43.93;100475.69;5094350;28;20112;-44
2023/04/14 10:40:51;;;;;;;0.30;0.30;;;;;;;18.96;44.31;100473.75;5094374;28;20047;-45
2023/04/14 10:43:17;;;;;;;0.28;0.28;;;;;;;18.96;44.06;100472.94;5100226;28;20043;-45
2023/04/14 10:45:58;;;;;;;0.30;0.30;;;;;;;18.98;43.96;100471.50;5112843;27;20231;-45
2023/04/14 10:48:25;;;;;;;0.20;0.20;;;;;;;18.98;44.16;100474.28;5114822;28;20054;-42
2023/04/14 10:50:58;;;;;;;0.20;0.20;;;;;;;18.99;44.18;100464.06;5096200;28;20074;-43
2023/04/14 10:53:25;;;;;;;0.20;0.20;;;;;;;18.99;44.02;100461.28;5094890;28;20077;-45
2023/04/14 10:55:54;;;;;;;0.30;0.30;;;;;;;18.99;44.30;100456.59;5096880;28;20050;-44
2023/04/14 10:58:21;;;;;;;0.30;0.30;;;;;;;19.00;44.02;100455.50;5096625;28;20406;-42
2023/04/14 11:00:47;;;;;;;0.28;0.28;;;;;;;19.00;43.87;100457.44;5096337;28;20055;-43
2023/04/14 11:03:16;;;;;;;0.20;0.20;;;;;;;19.02;43.98;100452.44;5113408;28;20039;-42
2023/04/14 11:05:44;;;;;;;0.30;0.30;;;;;;;19.01;44.02;100443.34;5094522;28;20052;-42
2023/04/14 11:08:13;;;;;;;0.20;0.20;;;;;;;19.03;44.09;100449.38;5094163;28;20054;-42
2023/04/14 11:10:40;;;;;;;0.20;0.20;;;;;;;19.03;44.02;100432.00;5076132;28;20287;-44
2023/04/14 11:13:10;;;;;;;0.20;0.20;;;;;;;19.02;44.16;100427.59;5096915;28;20039;-42
2023/04/14 11:16:00;;;;;;;0.20;0.20;;;;;;;19.03;44.27;100423.72;5084362;28;20047;-42
2023/04/14 11:21:07;;;;;;;0.20;0.20;;;;;;;19.05;44.22;100424.28;5174077;27;20127;-43
2023/04/14 11:23:34;;;;;;;0.20;0.20;;;;;;;19.05;44.08;100425.09;5153525;27;20039;-43
2023/04/14 11:25:59;;;;;;;0.20;0.20;;;;;;;19.07;44.14;100429.50;5153999;27;20109;-43
2023/04/14 11:28:30;;;;;;;0.20;0.20;;;;;;;19.07;44.03;100421.22;5118108;27;20046;-45
2023/04/14 11:30:57;;;;;;;0.28;0.28;;;;;;;19.07;44.38;100415.69;5152931;27;20047;-42